createdAt,value
2023-01-29T00:01:59.527Z,13.90
2023-01-29T00:04:27.024Z,13.75
2023-01-29T00:06:54.064Z,14.80
2023-01-29T00:09:21.257Z,15.00
2023-01-29T00:11:48.561Z,14.93
2023-01-29T00:14:15.571Z,13.38
2023-01-29T00:16:42.784Z,14.23
2023-01-29T00:19:10.260Z,13.55
2023-01-29T00:21:37.371Z,14.55
2023-01-29T00:24:05.617Z,14.07
2023-01-29T00:26:33.311Z,14.75
2023-01-29T00:29:02.943Z,15.52
2023-01-29T00:31:30.273Z,14.40
2023-01-29T00:33:58.379Z,14.02
2023-01-29T00:36:26.505Z,14.48
2023-01-29T00:39:02.552Z,14.73
2023-01-29T00:41:50.267Z,15.77
2023-01-29T00:44:36.157Z,14.87
2023-01-29T00:47:04.589Z,15.10
2023-01-29T00:49:31.668Z,15.30
2023-01-29T00:52:17.211Z,14.35
2023-01-29T00:54:44.627Z,14.05
2023-01-29T00:57:11.825Z,12.85
2023-01-29T00:59:38.961Z,14.32
2023-01-29T01:02:25.258Z,14.18
2023-01-29T01:04:52.357Z,13.10
2023-01-29T01:07:19.892Z,14.57
2023-01-29T01:10:05.910Z,15.13
2023-01-29T01:12:33.413Z,14.80
2023-01-29T01:15:00.509Z,13.60
2023-01-29T01:17:27.661Z,13.43
2023-01-29T01:19:55.263Z,14.45
2023-01-29T01:22:22.358Z,13.13
2023-01-29T01:24:49.920Z,13.02
2023-01-29T01:27:19.539Z,13.48
2023-01-29T01:29:47.160Z,13.55
2023-01-29T01:32:14.504Z,13.02
2023-01-29T01:34:41.925Z,13.60
2023-01-29T01:37:09.015Z,14.38
2023-01-29T01:39:36.091Z,13.95
2023-01-29T01:42:03.806Z,12.90
2023-01-29T01:45:18.008Z,13.07
2023-01-29T01:47:48.276Z,14.57
2023-01-29T01:50:22.741Z,12.88
2023-01-29T01:52:53.564Z,11.35
2023-01-29T01:55:24.314Z,13.70
2023-01-29T01:57:56.012Z,12.00
2023-01-29T02:00:25.636Z,14.48
2023-01-29T02:03:12.399Z,12.88
2023-01-29T02:05:58.368Z,12.85
2023-01-29T02:09:11.854Z,11.23
2023-01-29T02:11:39.280Z,11.93
2023-01-29T02:14:07.119Z,11.32
2023-01-29T02:16:36.078Z,12.23
2023-01-29T02:19:06.278Z,11.73
2023-01-29T02:21:53.236Z,12.10
2023-01-29T02:24:50.243Z,11.32
2023-01-29T02:27:37.661Z,11.82
2023-01-29T02:30:20.856Z,12.15
2023-01-29T02:32:58.865Z,9.32
2023-01-29T02:35:32.626Z,11.60
2023-01-29T02:38:27.710Z,10.20
2023-01-29T02:41:04.601Z,10.73
2023-01-29T02:43:59.213Z,10.55
2023-01-29T02:46:35.793Z,8.80
2023-01-29T02:49:23.627Z,9.25
2023-01-29T02:52:25.467Z,8.75
2023-01-29T02:55:02.850Z,11.68
2023-01-29T02:57:37.369Z,9.15
2023-01-29T03:00:09.163Z,10.60
2023-01-29T03:02:58.293Z,8.50
2023-01-29T03:05:32.807Z,8.73
2023-01-29T03:08:06.806Z,8.27
2023-01-29T03:10:44.810Z,9.98
2023-01-29T03:13:27.513Z,8.38
2023-01-29T03:16:19.208Z,8.25
2023-01-29T03:19:13.849Z,9.27
2023-01-29T03:21:59.628Z,7.95
2023-01-29T03:24:48.681Z,8.25
2023-01-29T03:27:36.061Z,7.62
2023-01-29T03:30:24.300Z,7.25
2023-01-29T03:32:52.636Z,6.47
2023-01-29T03:35:33.515Z,7.70
2023-01-29T03:38:01.056Z,8.00
2023-01-29T03:40:36.471Z,8.63
2023-01-29T03:43:13.575Z,9.25
2023-01-29T03:46:19.138Z,8.40
2023-01-29T03:48:55.779Z,6.78
2023-01-29T03:51:41.511Z,7.60
2023-01-29T03:54:34.451Z,7.18
2023-01-29T03:57:24.066Z,7.07
2023-01-29T03:59:55.550Z,7.18
2023-01-29T04:02:34.960Z,6.43
2023-01-29T04:05:06.814Z,6.25
2023-01-29T04:07:36.652Z,5.82
2023-01-29T04:10:09.490Z,7.80
2023-01-29T04:12:41.311Z,6.50
2023-01-29T04:15:11.427Z,7.68
2023-01-29T04:17:40.801Z,6.87
2023-01-29T04:20:09.674Z,6.95
2023-01-29T04:22:38.699Z,8.32
2023-01-29T04:25:16.033Z,7.70
2023-01-29T04:27:49.628Z,8.00
2023-01-29T04:30:38.287Z,6.70
2023-01-29T04:33:17.865Z,8.13
2023-01-29T04:36:10.852Z,8.20
2023-01-29T04:39:06.676Z,8.48
2023-01-29T04:41:54.055Z,9.00
2023-01-29T04:44:33.461Z,7.75
2023-01-29T04:47:29.363Z,6.85
2023-01-29T04:50:01.717Z,7.97
2023-01-29T04:52:47.534Z,7.85
2023-01-29T04:55:20.691Z,7.62
2023-01-29T04:57:54.597Z,7.03
2023-01-29T05:00:32.204Z,7.50
2023-01-29T05:03:00.763Z,7.90
2023-01-29T05:05:28.400Z,8.35
2023-01-29T05:07:57.205Z,7.65
2023-01-29T05:10:24.374Z,7.03
2023-01-29T05:12:58.756Z,7.53
2023-01-29T05:16:18.516Z,7.85
2023-01-29T05:18:46.739Z,8.30
2023-01-29T05:21:13.931Z,7.35
2023-01-29T05:23:53.107Z,8.35
2023-01-29T05:26:39.996Z,7.10
2023-01-29T05:29:07.352Z,7.25
2023-01-29T05:31:34.884Z,6.37
2023-01-29T05:34:01.961Z,7.53
2023-01-29T05:36:30.708Z,8.30
2023-01-29T05:38:58.130Z,7.62
2023-01-29T05:41:25.227Z,7.25
2023-01-29T05:43:52.316Z,7.43
2023-01-29T05:46:19.906Z,6.70
2023-01-29T05:48:47.027Z,8.43
2023-01-29T05:51:14.138Z,7.40
2023-01-29T05:53:42.002Z,5.87
2023-01-29T05:56:09.066Z,7.55
2023-01-29T05:58:36.237Z,6.85
2023-01-29T06:01:15.060Z,7.82
2023-01-29T06:03:42.510Z,6.43
2023-01-29T06:06:09.668Z,7.03
2023-01-29T06:08:37.170Z,6.18
2023-01-29T06:11:04.757Z,8.18
2023-01-29T06:13:31.841Z,6.18
2023-01-29T06:15:59.129Z,5.65
2023-01-29T06:18:26.582Z,6.93
2023-01-29T06:20:53.691Z,7.07
2023-01-29T06:23:20.742Z,7.32
2023-01-29T06:25:48.147Z,6.37
2023-01-29T06:28:15.207Z,8.02
2023-01-29T06:30:42.335Z,7.47
2023-01-29T06:33:09.773Z,7.85
2023-01-29T06:35:36.903Z,7.90
2023-01-29T06:38:03.987Z,6.72
2023-01-29T06:40:31.402Z,6.47
2023-01-29T06:43:00.753Z,7.25
2023-01-29T06:45:27.865Z,7.75
2023-01-29T06:47:56.255Z,7.55
2023-01-29T06:50:23.367Z,7.60
2023-01-29T06:52:50.346Z,7.78
2023-01-29T06:55:17.789Z,7.05
2023-01-29T06:57:44.903Z,6.85
2023-01-29T07:00:13.567Z,8.82
2023-01-29T07:02:41.036Z,6.22
2023-01-29T07:05:08.263Z,6.55
2023-01-29T07:07:36.680Z,6.85
2023-01-29T07:10:04.461Z,6.82
2023-01-29T07:12:31.542Z,6.30
2023-01-29T07:14:58.644Z,5.47
2023-01-29T07:17:26.137Z,6.57
2023-01-29T07:19:53.243Z,4.30
2023-01-29T07:22:20.637Z,6.25
2023-01-29T07:24:48.689Z,4.50
2023-01-29T07:27:15.801Z,5.43
2023-01-29T07:29:42.873Z,4.07
2023-01-29T07:32:10.330Z,4.53
2023-01-29T07:34:37.447Z,4.78
2023-01-29T07:37:06.237Z,4.53
2023-01-29T07:39:33.596Z,5.10
2023-01-29T07:42:01.201Z,5.80
2023-01-29T07:44:28.808Z,4.47
2023-01-29T07:46:56.224Z,4.95
2023-01-29T07:49:23.314Z,5.82
2023-01-29T07:51:51.279Z,4.37
2023-01-29T07:54:18.721Z,3.45
2023-01-29T07:56:45.798Z,5.07
2023-01-29T07:59:12.915Z,4.87
2023-01-29T08:01:40.347Z,5.47
2023-01-29T08:04:07.734Z,4.25
2023-01-29T08:06:34.869Z,6.25
2023-01-29T08:09:02.266Z,5.28
2023-01-29T08:11:29.671Z,5.10
2023-01-29T08:13:57.537Z,4.62
2023-01-29T08:16:24.669Z,5.45
2023-01-29T08:18:52.016Z,5.93
2023-01-29T08:21:19.162Z,5.15
2023-01-29T08:23:46.165Z,5.10
2023-01-29T08:26:13.475Z,5.05
2023-01-29T08:28:40.495Z,6.32
2023-01-29T08:31:17.326Z,4.12
2023-01-29T08:33:44.770Z,4.15
2023-01-29T08:36:12.053Z,4.55
2023-01-29T08:38:39.268Z,4.55
2023-01-29T08:41:07.242Z,4.75
2023-01-29T08:43:36.968Z,3.62
2023-01-29T08:46:05.140Z,4.07
2023-01-29T08:48:33.289Z,3.78
2023-01-29T08:51:02.520Z,4.30
2023-01-29T08:53:30.849Z,5.18
2023-01-29T08:55:58.264Z,4.87
2023-01-29T08:58:25.317Z,4.60
2023-01-29T09:00:52.333Z,5.57
2023-01-29T09:03:19.736Z,4.28
2023-01-29T09:05:46.854Z,5.28
2023-01-29T09:08:14.092Z,5.30
2023-01-29T09:10:41.437Z,3.58
2023-01-29T09:13:08.422Z,4.37
2023-01-29T09:15:35.877Z,4.40
2023-01-29T09:18:04.558Z,3.90
2023-01-29T09:20:31.613Z,4.28
2023-01-29T09:22:59.403Z,4.07
2023-01-29T09:25:26.771Z,3.97
2023-01-29T09:27:54.400Z,3.83
2023-01-29T09:30:21.746Z,3.67
2023-01-29T09:32:53.649Z,4.12
2023-01-29T09:35:22.534Z,3.95
2023-01-29T09:37:50.421Z,3.50
2023-01-29T09:40:37.684Z,3.42
2023-01-29T09:43:18.279Z,4.68
2023-01-29T09:45:53.979Z,2.53
2023-01-29T09:48:23.385Z,2.47
2023-01-29T09:50:52.326Z,3.80
2023-01-29T09:53:29.509Z,3.72
2023-01-29T09:56:02.856Z,4.55
2023-01-29T09:58:36.387Z,4.20
2023-01-29T10:01:24.091Z,3.70
2023-01-29T10:04:12.867Z,4.75
2023-01-29T10:07:03.868Z,3.85
2023-01-29T10:10:07.559Z,3.92
2023-01-29T10:12:56.051Z,2.90
2023-01-29T10:15:35.959Z,4.15
2023-01-29T10:18:18.529Z,3.83
2023-01-29T10:21:24.795Z,3.30
2023-01-29T10:24:21.306Z,4.15
2023-01-29T10:26:50.105Z,3.92
2023-01-29T10:29:19.995Z,3.97
2023-01-29T10:31:51.288Z,3.15
2023-01-29T10:34:28.719Z,3.17
2023-01-29T10:36:57.052Z,3.67
2023-01-29T10:39:26.053Z,3.25
2023-01-29T10:42:21.160Z,4.10
2023-01-29T10:45:09.477Z,3.37
2023-01-29T10:47:54.796Z,3.83
2023-01-29T10:50:48.983Z,4.40
2023-01-29T10:53:16.017Z,3.28
2023-01-29T10:55:51.547Z,4.15
2023-01-29T10:58:34.531Z,4.57
2023-01-29T11:01:02.160Z,4.53
2023-01-29T11:03:33.466Z,4.22
2023-01-29T11:06:12.959Z,4.47
2023-01-29T11:09:04.352Z,4.43
2023-01-29T11:11:43.379Z,4.57
2023-01-29T11:14:14.808Z,4.00
2023-01-29T11:16:44.186Z,4.82
2023-01-29T11:19:11.554Z,4.97
2023-01-29T11:21:58.742Z,5.25
2023-01-29T11:24:26.658Z,3.53
2023-01-29T11:26:59.092Z,4.47
2023-01-29T11:29:49.848Z,3.75
2023-01-29T11:32:26.586Z,3.25
2023-01-29T11:35:14.231Z,3.22
2023-01-29T11:37:43.734Z,2.85
2023-01-29T11:40:20.640Z,3.92
2023-01-29T11:42:48.585Z,3.97
2023-01-29T11:45:30.056Z,4.32
2023-01-29T11:47:57.423Z,3.33
2023-01-29T11:50:26.838Z,3.95
2023-01-29T11:52:54.498Z,3.05
2023-01-29T11:55:48.202Z,2.60
2023-01-29T11:58:27.731Z,3.28
2023-01-29T12:00:55.676Z,2.83
2023-01-29T12:03:37.016Z,3.37
2023-01-29T12:06:23.801Z,3.58
2023-01-29T12:08:58.000Z,3.70
2023-01-29T12:11:29.540Z,4.05
2023-01-29T12:14:01.191Z,3.53
2023-01-29T12:16:33.878Z,3.22
2023-01-29T12:19:27.729Z,4.03
2023-01-29T12:22:20.769Z,3.78
2023-01-29T12:24:48.117Z,3.40
2023-01-29T12:27:26.548Z,3.90
2023-01-29T12:30:28.114Z,3.08
2023-01-29T12:33:09.460Z,3.42
2023-01-29T12:35:54.573Z,2.50
2023-01-29T12:38:23.167Z,3.60
2023-01-29T12:41:33.798Z,3.83
2023-01-29T12:44:21.135Z,3.78
2023-01-29T12:46:54.029Z,3.90
2023-01-29T12:49:28.194Z,2.92
2023-01-29T12:52:28.744Z,3.45
2023-01-29T12:55:03.348Z,4.45
2023-01-29T12:57:56.496Z,3.95
2023-01-29T13:00:30.148Z,3.78
2023-01-29T13:03:09.203Z,3.72
2023-01-29T13:05:40.907Z,4.37
2023-01-29T13:08:11.847Z,5.03
2023-01-29T13:10:43.366Z,4.15
2023-01-29T13:13:26.991Z,3.80
2023-01-29T13:15:55.574Z,4.00
2023-01-29T13:18:42.484Z,4.32
2023-01-29T13:21:15.728Z,3.53
2023-01-29T13:23:47.309Z,3.72
2023-01-29T13:26:19.052Z,3.42
2023-01-29T13:28:47.058Z,3.65
2023-01-29T13:31:31.615Z,3.78
2023-01-29T13:34:20.268Z,3.65
2023-01-29T13:36:49.907Z,4.32
2023-01-29T13:39:25.933Z,3.70
2023-01-29T13:41:55.196Z,4.60
2023-01-29T13:44:37.805Z,4.90
2023-01-29T13:47:08.175Z,3.80
2023-01-29T13:49:38.873Z,3.80
2023-01-29T13:52:21.129Z,4.57
2023-01-29T13:54:58.065Z,4.05
2023-01-29T13:57:56.753Z,3.70
2023-01-29T14:00:30.723Z,3.17
2023-01-29T14:03:01.038Z,4.43
2023-01-29T14:05:31.427Z,3.50
2023-01-29T14:08:03.355Z,3.75
2023-01-29T14:10:32.955Z,4.80
2023-01-29T14:13:03.340Z,4.10
2023-01-29T14:15:33.499Z,5.28
2023-01-29T14:18:18.923Z,4.15
2023-01-29T14:20:49.010Z,4.90
2023-01-29T14:23:41.819Z,3.65
2023-01-29T14:26:38.360Z,4.37
2023-01-29T14:29:21.329Z,4.72
2023-01-29T14:32:06.799Z,5.10
2023-01-29T14:34:43.195Z,4.87
2023-01-29T14:37:16.338Z,5.10
2023-01-29T14:39:43.603Z,4.32
2023-01-29T14:42:17.372Z,6.07
2023-01-29T14:44:44.611Z,5.07
2023-01-29T14:47:33.240Z,4.50
2023-01-29T14:50:03.461Z,4.95
2023-01-29T14:52:38.776Z,6.40
2023-01-29T14:55:14.911Z,5.03
2023-01-29T14:57:42.629Z,5.62
2023-01-29T15:00:31.555Z,5.40
2023-01-29T15:03:01.964Z,3.97
2023-01-29T15:05:33.216Z,5.12
2023-01-29T15:08:19.085Z,6.00
2023-01-29T15:11:12.528Z,5.30
2023-01-29T15:13:50.834Z,4.10
2023-01-29T15:16:25.250Z,5.72
2023-01-29T15:18:56.329Z,4.60
2023-01-29T15:21:24.243Z,5.82
2023-01-29T15:24:04.742Z,5.78
2023-01-29T15:26:32.274Z,5.30
2023-01-29T15:29:04.562Z,6.25
2023-01-29T15:31:32.624Z,5.50
2023-01-29T15:34:05.081Z,5.78
2023-01-29T15:36:33.078Z,4.65
2023-01-29T15:39:24.380Z,5.55
2023-01-29T15:42:05.378Z,6.35
2023-01-29T15:44:33.617Z,5.15
2023-01-29T15:47:01.419Z,5.97
2023-01-29T15:49:34.311Z,5.62
2023-01-29T15:52:05.591Z,5.57
2023-01-29T15:54:34.015Z,6.10
2023-01-29T15:57:02.349Z,4.65
2023-01-29T15:59:35.530Z,5.95
2023-01-29T16:02:21.454Z,3.95
2023-01-29T16:04:48.949Z,3.53
2023-01-29T16:07:16.092Z,3.58
2023-01-29T16:09:43.441Z,3.62
2023-01-29T16:12:12.590Z,4.28
2023-01-29T16:14:40.817Z,4.85
2023-01-29T16:17:22.866Z,3.87
2023-01-29T16:19:58.304Z,4.10
2023-01-29T16:22:29.170Z,3.12
2023-01-29T16:24:56.631Z,4.18
2023-01-29T16:27:24.678Z,3.83
2023-01-29T16:29:51.910Z,4.47
2023-01-29T16:32:20.270Z,4.32
2023-01-29T16:34:48.896Z,4.72
2023-01-29T16:37:26.395Z,5.25
2023-01-29T16:39:54.023Z,4.45
2023-01-29T16:42:24.193Z,3.72
2023-01-29T16:45:00.937Z,5.40
2023-01-29T16:47:34.271Z,4.78
2023-01-29T16:50:21.632Z,5.37
2023-01-29T16:53:16.716Z,4.57
2023-01-29T16:55:49.472Z,5.05
2023-01-29T16:58:19.415Z,4.28
2023-01-29T17:00:53.341Z,4.37
2023-01-29T17:03:21.308Z,4.85
2023-01-29T17:05:48.799Z,4.47
2023-01-29T17:08:36.091Z,5.95
2023-01-29T17:11:03.862Z,6.03
2023-01-29T17:13:39.954Z,6.80
2023-01-29T17:16:20.776Z,8.48
2023-01-29T17:18:47.941Z,7.85
2023-01-29T17:21:15.339Z,6.95
2023-01-29T17:23:42.431Z,5.18
2023-01-29T17:26:12.671Z,10.10
2023-01-29T17:28:41.433Z,5.50
2023-01-29T17:31:08.969Z,6.80
2023-01-29T17:33:38.580Z,7.12
2023-01-29T17:36:06.466Z,5.65
2023-01-29T17:38:33.781Z,5.87
2023-01-29T17:41:07.631Z,6.72
2023-01-29T17:46:02.569Z,6.80
2023-01-29T17:48:30.728Z,6.47
2023-01-29T17:51:03.386Z,6.43
2023-01-29T17:53:44.807Z,5.93
2023-01-29T17:56:28.090Z,6.35
2023-01-29T17:58:55.245Z,7.20
2023-01-29T18:01:22.671Z,6.32
2023-01-29T18:03:50.191Z,7.97
2023-01-29T18:06:26.191Z,7.10
2023-01-29T18:08:53.935Z,7.30
2023-01-29T18:11:21.012Z,6.80
2023-01-29T18:13:48.134Z,7.35
2023-01-29T18:16:16.013Z,6.78
2023-01-29T18:18:43.079Z,5.80
2023-01-29T18:21:10.341Z,5.78
2023-01-29T18:23:37.733Z,7.07
2023-01-29T18:26:04.981Z,6.55
2023-01-29T18:28:32.152Z,6.10
2023-01-29T18:31:03.798Z,4.65
2023-01-29T18:33:31.835Z,6.25
2023-01-29T18:35:58.915Z,5.65
2023-01-29T18:38:26.713Z,5.62
2023-01-29T18:40:53.833Z,6.03
2023-01-29T18:43:20.970Z,6.00
2023-01-29T18:45:49.432Z,6.35
2023-01-29T18:48:16.608Z,6.00
2023-01-29T18:50:43.730Z,6.30
2023-01-29T18:53:11.231Z,6.50
2023-01-29T18:55:38.565Z,7.18
2023-01-29T18:58:28.186Z,5.68
2023-01-29T19:00:53.218Z,6.87
2023-01-29T19:03:20.631Z,7.20
2023-01-29T19:05:47.980Z,7.35
2023-01-29T19:08:15.530Z,6.82
2023-01-29T19:10:42.755Z,7.30
2023-01-29T19:13:10.002Z,7.00
2023-01-29T19:15:37.412Z,6.82
2023-01-29T19:18:04.572Z,6.72
2023-01-29T19:20:31.699Z,7.12
2023-01-29T19:22:59.571Z,5.97
2023-01-29T19:25:26.694Z,6.87
2023-01-29T19:27:54.185Z,6.47
2023-01-29T19:30:21.668Z,6.57
2023-01-29T19:32:48.837Z,6.30
2023-01-29T19:35:16.179Z,6.15
2023-01-29T19:37:43.972Z,6.50
2023-01-29T19:40:11.471Z,6.53
2023-01-29T19:42:38.767Z,6.68
2023-01-29T19:45:08.319Z,5.62
2023-01-29T19:47:40.124Z,6.18
2023-01-29T19:50:09.908Z,5.62
2023-01-29T19:52:50.826Z,6.35
2023-01-29T19:55:20.662Z,6.45
2023-01-29T19:57:48.187Z,5.35
2023-01-29T20:00:17.476Z,6.32
2023-01-29T20:02:46.764Z,7.10
2023-01-29T20:05:17.235Z,6.07
2023-01-29T20:07:44.997Z,6.15
2023-01-29T20:10:17.303Z,6.93
2023-01-29T20:12:46.090Z,6.65
2023-01-29T20:15:14.529Z,6.82
2023-01-29T20:17:41.891Z,6.78
2023-01-29T20:20:10.094Z,6.82
2023-01-29T20:22:37.712Z,7.00
2023-01-29T20:25:05.034Z,7.00
2023-01-29T20:27:32.492Z,7.00
2023-01-29T20:29:59.813Z,6.87
2023-01-29T20:32:26.932Z,5.97
2023-01-29T20:34:54.301Z,6.82
2023-01-29T20:37:21.462Z,7.15
2023-01-29T20:39:48.844Z,6.25
2023-01-29T20:42:16.372Z,7.90
2023-01-29T20:44:43.808Z,6.60
2023-01-29T20:47:11.918Z,6.57
2023-01-29T20:49:39.292Z,7.68
2023-01-29T20:52:07.586Z,7.37
2023-01-29T20:54:34.793Z,7.68
2023-01-29T20:57:02.527Z,7.18
2023-01-29T20:59:29.631Z,7.25
2023-01-29T21:01:56.722Z,7.47
2023-01-29T21:04:24.165Z,7.25
2023-01-29T21:06:51.372Z,6.93
2023-01-29T21:09:18.500Z,7.93
2023-01-29T21:11:46.036Z,8.00
2023-01-29T21:14:14.164Z,8.43
2023-01-29T21:16:41.362Z,7.28
2023-01-29T21:19:09.681Z,7.47
2023-01-29T21:21:36.774Z,7.50
2023-01-29T21:24:04.102Z,8.13
2023-01-29T21:26:31.661Z,7.40
2023-01-29T21:28:58.767Z,8.85
2023-01-29T21:31:25.973Z,7.90
2023-01-29T21:33:53.457Z,7.82
2023-01-29T21:36:20.622Z,8.85
2023-01-29T21:38:47.773Z,7.95
2023-01-29T21:41:15.176Z,8.07
2023-01-29T21:43:42.283Z,9.00
2023-01-29T21:46:11.648Z,9.43
2023-01-29T21:48:39.967Z,8.63
2023-01-29T21:51:07.521Z,8.43
2023-01-29T21:53:34.687Z,9.23
2023-01-29T21:56:03.823Z,9.48
2023-01-29T21:58:31.731Z,8.13
2023-01-29T22:01:36.054Z,8.63
2023-01-29T22:03:47.580Z,9.95
2023-01-29T22:06:15.395Z,7.62
2023-01-29T22:08:42.534Z,8.70
2023-01-29T22:11:10.322Z,7.95
2023-01-29T22:13:37.601Z,7.93
2023-01-29T22:16:06.018Z,8.95
2023-01-29T22:18:34.270Z,7.75
2023-01-29T22:21:05.014Z,8.10
2023-01-29T22:23:32.698Z,7.40
2023-01-29T22:26:07.085Z,8.55
2023-01-29T22:28:35.096Z,7.87
2023-01-29T22:31:03.743Z,7.03
2023-01-29T22:33:31.361Z,7.87
2023-01-29T22:35:58.454Z,8.43
2023-01-29T22:38:25.950Z,8.00
2023-01-29T22:40:53.946Z,7.22
2023-01-29T22:43:21.755Z,7.70
2023-01-29T22:45:49.172Z,7.65
2023-01-29T22:48:16.229Z,8.23
2023-01-29T22:50:53.901Z,8.48
2023-01-29T22:53:21.758Z,7.57
2023-01-29T22:55:55.810Z,8.65
2023-01-29T22:58:23.292Z,7.45
2023-01-29T23:00:51.290Z,7.20
2023-01-29T23:03:18.375Z,7.40
2023-01-29T23:05:45.802Z,9.23
2023-01-29T23:08:12.904Z,7.68
2023-01-29T23:10:40.011Z,8.48
2023-01-29T23:13:07.437Z,9.40
2023-01-29T23:15:34.526Z,8.70
2023-01-29T23:18:01.661Z,9.35
2023-01-29T23:20:29.271Z,7.93
2023-01-29T23:22:56.365Z,8.10
2023-01-29T23:25:43.574Z,8.38
2023-01-29T23:28:10.955Z,8.35
2023-01-29T23:30:38.067Z,8.43
2023-01-29T23:33:05.631Z,9.85
2023-01-29T23:35:33.073Z,8.98
2023-01-29T23:38:00.187Z,8.85
2023-01-29T23:40:27.240Z,9.25
2023-01-29T23:42:54.620Z,9.75
2023-01-29T23:45:21.686Z,9.43
2023-01-29T23:47:48.986Z,9.93
2023-01-29T23:50:17.595Z,8.88
2023-01-29T23:52:44.872Z,9.00
2023-01-29T23:55:11.924Z,8.77
2023-01-29T23:57:39.455Z,10.82
